createdAt,value
2022-09-07T00:02:00.257Z,2.05
2022-09-07T00:04:46.634Z,2.50
2022-09-07T00:07:33.582Z,2.03
2022-09-07T00:10:19.607Z,1.75
2022-09-07T00:13:07.676Z,2.17
2022-09-07T00:15:54.029Z,2.30
2022-09-07T00:18:45.594Z,2.80
2022-09-07T00:21:33.472Z,2.47
2022-09-07T00:24:19.640Z,3.92
2022-09-07T00:27:05.699Z,3.05
2022-09-07T00:29:51.726Z,3.63
2022-09-07T00:32:42.974Z,2.80
2022-09-07T00:35:32.277Z,2.70
2022-09-07T00:38:20.191Z,2.85
2022-09-07T00:41:06.501Z,2.65
2022-09-07T00:43:57.815Z,2.63
2022-09-07T00:46:44.716Z,2.70
2022-09-07T00:49:33.092Z,2.67
2022-09-07T00:52:20.746Z,3.22
2022-09-07T00:55:12.286Z,2.92
2022-09-07T00:58:01.853Z,3.60
2022-09-07T01:00:53.262Z,3.20
2022-09-07T01:03:44.653Z,2.92
2022-09-07T01:06:36.082Z,2.63
2022-09-07T01:09:24.340Z,2.72
2022-09-07T01:12:13.026Z,2.97
2022-09-07T01:15:00.266Z,3.70
2022-09-07T01:18:07.107Z,2.85
2022-09-07T01:21:23.620Z,2.65
2022-09-07T01:24:31.945Z,2.35
2022-09-07T01:27:49.158Z,2.58
2022-09-07T01:30:38.845Z,2.60
2022-09-07T01:33:33.808Z,3.05
2022-09-07T01:36:41.286Z,2.70
2022-09-07T01:40:00.823Z,3.50
2022-09-07T01:43:00.667Z,3.47
2022-09-07T01:45:48.281Z,2.90
2022-09-07T01:48:37.994Z,3.72
2022-09-07T01:51:28.797Z,3.00
2022-09-07T01:54:30.525Z,2.45
2022-09-07T01:57:23.293Z,3.17
2022-09-07T02:00:14.313Z,3.65
2022-09-07T02:03:18.218Z,3.50
2022-09-07T02:06:22.380Z,3.15
2022-09-07T02:09:19.438Z,3.72
2022-09-07T02:12:16.775Z,3.65
2022-09-07T02:15:15.587Z,3.35
2022-09-07T02:18:05.565Z,3.70
2022-09-07T02:20:58.303Z,3.38
2022-09-07T02:23:49.061Z,2.95
2022-09-07T02:26:38.766Z,3.40
2022-09-07T02:29:29.124Z,3.83
2022-09-07T02:32:17.106Z,4.53
2022-09-07T02:35:03.126Z,3.63
2022-09-07T02:37:50.485Z,4.25
2022-09-07T02:40:37.060Z,3.40
2022-09-07T02:43:24.606Z,3.85
2022-09-07T02:46:19.470Z,3.58
2022-09-07T02:49:33.339Z,4.40
2022-09-07T02:52:33.469Z,3.45
2022-09-07T02:55:27.074Z,3.47
2022-09-07T02:58:22.589Z,3.40
2022-09-07T03:01:33.346Z,3.55
2022-09-07T03:04:41.911Z,3.30
2022-09-07T03:07:43.992Z,3.47
2022-09-07T03:10:31.148Z,5.20
2022-09-07T03:13:29.049Z,4.40
2022-09-07T03:16:18.581Z,3.67
2022-09-07T03:19:05.172Z,4.40
2022-09-07T03:21:51.546Z,4.32
2022-09-07T03:24:37.976Z,3.65
2022-09-07T03:27:24.146Z,4.47
2022-09-07T03:30:11.601Z,3.70
2022-09-07T03:32:57.837Z,4.70
2022-09-07T03:35:57.130Z,4.78
2022-09-07T03:38:43.353Z,4.07
2022-09-07T03:41:29.216Z,4.95
2022-09-07T03:44:15.378Z,4.50
2022-09-07T03:47:01.650Z,5.13
2022-09-07T03:49:48.939Z,4.35
2022-09-07T03:52:35.780Z,4.82
2022-09-07T03:55:22.164Z,4.03
2022-09-07T03:58:08.154Z,5.45
2022-09-07T04:00:54.134Z,4.63
2022-09-07T04:03:40.311Z,4.55
2022-09-07T04:06:26.306Z,4.63
2022-09-07T04:09:14.142Z,5.65
2022-09-07T04:12:00.152Z,4.22
2022-09-07T04:14:46.415Z,5.35
2022-09-07T04:17:32.615Z,4.43
2022-09-07T04:20:18.726Z,3.92
2022-09-07T04:23:05.209Z,5.15
2022-09-07T04:25:52.419Z,4.65
2022-09-07T04:28:38.619Z,4.25
2022-09-07T04:31:25.372Z,4.82
2022-09-07T04:34:12.339Z,4.82
2022-09-07T04:36:58.919Z,4.57
2022-09-07T04:39:44.875Z,3.50
2022-09-07T04:42:31.069Z,3.90
2022-09-07T04:45:17.385Z,4.53
2022-09-07T04:48:03.899Z,3.80
2022-09-07T04:50:52.039Z,3.58
2022-09-07T04:53:38.641Z,3.58
2022-09-07T04:56:25.458Z,4.07
2022-09-07T04:59:12.108Z,3.70
2022-09-07T05:01:58.490Z,4.53
2022-09-07T05:04:44.852Z,3.70
2022-09-07T05:07:33.977Z,3.72
2022-09-07T05:10:20.171Z,3.65
2022-09-07T05:13:06.675Z,3.75
2022-09-07T05:15:52.906Z,3.97
2022-09-07T05:18:39.205Z,4.85
2022-09-07T05:21:28.263Z,4.28
2022-09-07T05:24:14.691Z,4.13
2022-09-07T05:27:01.860Z,4.03
2022-09-07T05:30:04.475Z,4.15
2022-09-07T05:32:51.778Z,4.95
2022-09-07T05:35:38.021Z,5.32
2022-09-07T05:38:25.745Z,4.65
2022-09-07T05:41:22.072Z,4.38
2022-09-07T05:47:14.835Z,4.78
2022-09-07T05:50:01.080Z,4.38
2022-09-07T05:52:50.583Z,4.20
2022-09-07T05:55:36.676Z,4.28
2022-09-07T05:58:22.613Z,4.35
2022-09-07T06:01:13.206Z,4.57
2022-09-07T06:04:00.277Z,5.18
2022-09-07T06:06:59.245Z,5.18
2022-09-07T06:12:58.712Z,4.40
2022-09-07T06:15:45.134Z,4.53
2022-09-07T06:18:35.116Z,4.55
2022-09-07T06:21:24.802Z,3.83
2022-09-07T06:24:11.107Z,4.78
2022-09-07T06:26:57.201Z,4.10
2022-09-07T06:29:43.102Z,4.70
2022-09-07T06:32:45.582Z,3.95
2022-09-07T06:35:32.070Z,4.75
2022-09-07T06:38:20.706Z,4.57
2022-09-07T06:44:24.167Z,4.43
2022-09-07T06:47:10.722Z,4.63
2022-09-07T06:49:56.794Z,4.68
2022-09-07T06:55:49.545Z,4.60
2022-09-07T06:58:39.196Z,4.53
2022-09-07T07:01:33.677Z,4.47
2022-09-07T07:04:19.781Z,4.53
2022-09-07T07:07:05.917Z,4.10
2022-09-07T07:09:52.441Z,4.25
2022-09-07T07:15:30.834Z,5.03
2022-09-07T07:18:21.190Z,4.13
2022-09-07T07:21:13.338Z,5.38
2022-09-07T07:23:59.457Z,4.82
2022-09-07T07:26:48.643Z,3.80
2022-09-07T07:29:34.553Z,3.90
2022-09-07T07:32:20.622Z,4.57
2022-09-07T07:35:07.689Z,3.60
2022-09-07T07:44:06.703Z,4.82
2022-09-07T07:46:52.964Z,3.67
2022-09-07T07:49:39.222Z,5.15
2022-09-07T07:55:45.848Z,5.32
2022-09-07T07:58:33.789Z,3.83
2022-09-07T08:01:19.824Z,5.40
2022-09-07T08:04:06.113Z,3.80
2022-09-07T08:06:52.375Z,3.53
2022-09-07T08:09:40.496Z,4.38
2022-09-07T08:12:29.793Z,3.92
2022-09-07T08:15:15.915Z,3.80
2022-09-07T08:18:06.345Z,4.03
2022-09-07T08:21:12.340Z,3.92
2022-09-07T08:24:00.321Z,3.58
2022-09-07T08:26:47.892Z,5.03
2022-09-07T08:29:35.449Z,4.43
2022-09-07T08:32:21.934Z,4.05
2022-09-07T08:35:08.212Z,4.22
2022-09-07T08:37:56.690Z,5.55
2022-09-07T08:40:42.709Z,3.78
2022-09-07T08:43:40.861Z,3.33
2022-09-07T08:46:36.535Z,4.25
2022-09-07T08:49:41.523Z,4.78
2022-09-07T08:52:47.695Z,4.15
2022-09-07T08:55:46.994Z,4.30
2022-09-07T08:58:51.489Z,3.85
2022-09-07T09:01:42.482Z,3.83
2022-09-07T09:04:31.042Z,4.45
2022-09-07T09:08:03.659Z,3.20
2022-09-07T09:11:13.784Z,3.78
2022-09-07T09:14:17.208Z,3.97
2022-09-07T09:17:35.177Z,4.77
2022-09-07T09:20:31.723Z,4.07
2022-09-07T09:23:20.444Z,4.60
2022-09-07T09:26:29.164Z,4.20
2022-09-07T09:29:20.189Z,3.45
2022-09-07T09:32:41.445Z,3.83
2022-09-07T09:35:38.743Z,3.92
2022-09-07T09:38:45.510Z,3.45
2022-09-07T09:41:37.176Z,3.80
2022-09-07T09:47:36.203Z,3.65
2022-09-07T09:53:58.646Z,3.42
2022-09-07T09:56:46.691Z,4.03
2022-09-07T10:05:47.474Z,3.45
2022-09-07T10:08:34.703Z,3.40
2022-09-07T10:14:48.528Z,3.67
2022-09-07T10:17:47.650Z,3.22
2022-09-07T10:20:37.471Z,3.85
2022-09-07T10:23:28.256Z,3.88
2022-09-07T10:26:28.488Z,3.42
2022-09-07T10:29:23.953Z,3.08
2022-09-07T10:32:23.272Z,3.22
2022-09-07T10:35:40.367Z,4.43
2022-09-07T10:38:30.521Z,3.35
2022-09-07T10:41:19.088Z,3.00
2022-09-07T10:44:10.781Z,3.20
2022-09-07T10:47:18.208Z,3.92
2022-09-07T10:50:32.051Z,3.17
2022-09-07T10:53:40.059Z,4.18
2022-09-07T10:56:33.244Z,3.50
2022-09-07T11:06:42.957Z,4.25
2022-09-07T11:09:48.940Z,3.65
2022-09-07T11:12:38.513Z,4.05
2022-09-07T11:15:34.944Z,4.65
2022-09-07T11:18:30.309Z,3.63
2022-09-07T11:24:30.707Z,2.85
2022-09-07T11:27:37.761Z,3.70
2022-09-07T11:30:29.940Z,3.05
2022-09-07T11:33:28.689Z,3.55
2022-09-07T11:36:18.027Z,2.92
2022-09-07T11:39:06.394Z,3.63
2022-09-07T11:45:33.879Z,2.85
2022-09-07T11:48:41.364Z,3.30
2022-09-07T11:51:57.075Z,2.75
2022-09-07T11:54:48.792Z,3.80
2022-09-07T11:57:55.645Z,3.05
2022-09-07T12:01:04.840Z,3.55
2022-09-07T12:04:04.277Z,3.50
2022-09-07T12:07:19.989Z,3.22
2022-09-07T12:10:37.750Z,2.70
2022-09-07T12:14:01.353Z,2.88
2022-09-07T12:17:00.794Z,4.00
2022-09-07T12:20:39.324Z,2.08
2022-09-07T12:23:29.268Z,2.42
2022-09-07T12:26:33.700Z,2.10
2022-09-07T12:29:25.664Z,2.47
2022-09-07T12:32:57.059Z,2.17
2022-09-07T12:35:44.688Z,2.72
2022-09-07T12:38:30.572Z,2.78
2022-09-07T12:41:25.138Z,2.60
2022-09-07T12:44:38.092Z,3.50
2022-09-07T12:47:30.332Z,3.70
2022-09-07T12:50:23.710Z,2.95
2022-09-07T12:53:13.005Z,3.50
2022-09-07T12:56:15.954Z,3.05
2022-09-07T12:59:06.273Z,3.30
2022-09-07T13:02:16.415Z,3.63
2022-09-07T13:05:30.648Z,2.75
2022-09-07T13:08:34.786Z,2.70
2022-09-07T13:11:33.412Z,3.13
2022-09-07T13:14:24.691Z,2.58
2022-09-07T13:17:34.023Z,3.63
2022-09-07T13:20:30.204Z,3.08
2022-09-07T13:23:26.262Z,4.22
2022-09-07T13:26:33.864Z,3.25
2022-09-07T13:29:36.113Z,3.35
2022-09-07T13:33:07.895Z,2.90
2022-09-07T13:35:31.913Z,2.95
2022-09-07T13:38:19.136Z,2.85
2022-09-07T13:41:15.336Z,3.65
2022-09-07T13:44:03.810Z,3.33
2022-09-07T13:46:56.504Z,2.90
2022-09-07T13:50:10.793Z,3.17
2022-09-07T13:53:13.348Z,2.70
2022-09-07T13:56:09.995Z,2.90
2022-09-07T13:58:56.745Z,2.60
2022-09-07T14:01:47.153Z,2.83
2022-09-07T14:04:39.016Z,2.90
2022-09-07T14:07:28.009Z,3.08
2022-09-07T14:10:25.906Z,3.03
2022-09-07T14:13:18.237Z,3.22
2022-09-07T14:16:04.930Z,3.15
2022-09-07T14:18:50.756Z,3.38
2022-09-07T14:21:37.197Z,3.15
2022-09-07T14:24:30.149Z,3.13
2022-09-07T14:27:25.017Z,2.42
2022-09-07T14:30:29.063Z,2.85
2022-09-07T14:33:20.180Z,3.72
2022-09-07T14:36:29.476Z,2.53
2022-09-07T14:39:15.820Z,2.65
2022-09-07T14:42:03.806Z,2.90
2022-09-07T14:44:50.242Z,2.55
2022-09-07T14:47:36.501Z,2.78
2022-09-07T14:50:43.349Z,3.03
2022-09-07T14:53:36.858Z,2.40
2022-09-07T14:56:31.931Z,2.90
2022-09-07T14:59:50.602Z,2.40
2022-09-07T15:02:37.095Z,2.72
2022-09-07T15:05:29.789Z,2.85
2022-09-07T15:08:41.047Z,2.35
2022-09-07T15:11:34.323Z,2.88
2022-09-07T15:14:20.972Z,2.80
2022-09-07T15:20:32.775Z,3.08
2022-09-07T15:23:19.624Z,2.30
2022-09-07T15:26:07.809Z,2.97
2022-09-07T15:29:10.863Z,2.38
2022-09-07T15:32:03.761Z,2.80
2022-09-07T15:34:52.423Z,3.05
2022-09-07T15:41:18.093Z,2.85
2022-09-07T15:43:56.853Z,2.88
2022-09-07T15:47:42.369Z,2.92
2022-09-07T15:49:51.820Z,2.72
2022-09-07T15:52:40.744Z,2.70
2022-09-07T15:55:26.983Z,3.10
2022-09-07T15:58:13.191Z,3.13
2022-09-07T16:04:16.533Z,2.63
2022-09-07T16:07:02.622Z,2.47
2022-09-07T16:09:52.461Z,2.70
2022-09-07T16:15:47.169Z,2.67
2022-09-07T16:18:33.934Z,3.25
2022-09-07T16:21:26.241Z,3.10
2022-09-07T16:24:12.793Z,3.50
2022-09-07T16:26:58.957Z,2.75
2022-09-07T16:29:45.082Z,3.00
2022-09-07T16:32:46.456Z,2.38
2022-09-07T16:35:33.283Z,3.20
2022-09-07T16:41:29.117Z,2.70
2022-09-07T16:44:16.286Z,3.05
2022-09-07T16:47:02.324Z,3.40
2022-09-07T16:49:48.563Z,2.70
2022-09-07T16:52:34.605Z,2.75
2022-09-07T16:55:20.922Z,2.67
2022-09-07T17:01:17.205Z,3.65
2022-09-07T17:04:09.620Z,2.90
2022-09-07T17:06:56.970Z,2.53
2022-09-07T17:09:43.398Z,2.58
2022-09-07T17:12:29.247Z,2.80
2022-09-07T17:15:15.574Z,2.72
2022-09-07T17:18:02.240Z,2.72
2022-09-07T17:21:00.793Z,3.20
2022-09-07T17:23:55.090Z,2.88
2022-09-07T17:26:42.420Z,3.35
2022-09-07T17:29:30.515Z,2.55
2022-09-07T17:32:25.037Z,2.88
2022-09-07T17:35:11.616Z,4.05
2022-09-07T17:37:57.939Z,2.85
2022-09-07T17:40:44.064Z,4.05
2022-09-07T17:43:46.037Z,2.75
2022-09-07T17:46:32.903Z,3.17
2022-09-07T17:49:18.962Z,3.13
2022-09-07T17:52:05.537Z,2.58
2022-09-07T17:54:55.296Z,2.97
2022-09-07T17:57:41.611Z,3.10
2022-09-07T18:00:27.743Z,3.20
2022-09-07T18:03:14.319Z,3.53
2022-09-07T18:06:00.787Z,4.00
2022-09-07T18:08:47.297Z,15.82
2022-09-07T18:11:50.039Z,9.10
2022-09-07T18:14:36.710Z,4.70
2022-09-07T18:17:22.712Z,5.07
2022-09-07T18:20:09.546Z,4.88
2022-09-07T18:22:56.079Z,4.45
2022-09-07T18:25:44.291Z,3.88
2022-09-07T18:31:37.579Z,4.78
2022-09-07T18:34:24.247Z,3.92
2022-09-07T18:37:12.225Z,4.43
2022-09-07T18:39:58.503Z,3.80
2022-09-07T18:42:44.997Z,4.28
2022-09-07T18:45:31.105Z,4.72
2022-09-07T18:48:16.998Z,4.38
2022-09-07T18:51:03.420Z,4.97
2022-09-07T18:53:49.317Z,3.50
2022-09-07T18:56:35.402Z,4.65
2022-09-07T18:59:21.246Z,4.05
2022-09-07T19:02:08.788Z,4.55
2022-09-07T19:08:03.709Z,4.82
2022-09-07T19:10:49.781Z,4.00
2022-09-07T19:13:37.277Z,3.67
2022-09-07T19:16:24.204Z,3.20
2022-09-07T19:19:12.169Z,4.35
2022-09-07T19:22:01.109Z,3.22
2022-09-07T19:24:47.500Z,3.50
2022-09-07T19:27:33.852Z,3.08
2022-09-07T19:30:20.134Z,3.15
2022-09-07T19:33:09.907Z,3.08
2022-09-07T19:35:56.186Z,2.83
2022-09-07T19:38:42.430Z,3.72
2022-09-07T19:41:28.603Z,2.90
2022-09-07T19:44:14.869Z,3.22
2022-09-07T19:47:01.050Z,3.88
2022-09-07T19:49:47.242Z,3.53
2022-09-07T19:52:33.650Z,3.47
2022-09-07T19:55:19.990Z,3.05
2022-09-07T19:58:06.040Z,2.70
2022-09-07T20:00:52.667Z,3.20
2022-09-07T20:03:39.423Z,3.65
2022-09-07T20:06:28.989Z,3.20
2022-09-07T20:09:15.726Z,3.42
2022-09-07T20:12:03.680Z,3.47
2022-09-07T20:14:49.823Z,3.03
2022-09-07T20:17:37.494Z,3.67
2022-09-07T20:20:23.911Z,3.17
2022-09-07T20:23:13.295Z,3.15
2022-09-07T20:26:01.628Z,3.17
2022-09-07T20:29:05.861Z,3.15
2022-09-07T20:32:01.219Z,2.83
2022-09-07T20:34:47.317Z,3.63
2022-09-07T20:37:35.801Z,3.88
2022-09-07T20:40:21.821Z,3.75
2022-09-07T20:43:08.277Z,2.63
2022-09-07T20:45:58.937Z,1.63
2022-09-07T20:48:45.018Z,1.50
2022-09-07T20:51:31.444Z,2.00
2022-09-07T20:54:17.417Z,1.52
2022-09-07T20:57:04.314Z,1.17
2022-09-07T20:59:50.677Z,1.23
2022-09-07T21:02:36.697Z,0.90
2022-09-07T21:05:22.585Z,1.20
2022-09-07T21:08:08.784Z,1.20
2022-09-07T21:10:55.260Z,1.35
2022-09-07T21:13:41.860Z,1.25
2022-09-07T21:16:29.857Z,1.10
2022-09-07T21:19:16.322Z,1.30
2022-09-07T21:22:02.486Z,1.08
2022-09-07T21:24:48.538Z,1.23
2022-09-07T21:27:38.732Z,1.42
2022-09-07T21:30:25.585Z,1.42
2022-09-07T21:33:11.864Z,1.20
2022-09-07T21:36:04.941Z,1.55
2022-09-07T21:38:51.810Z,1.13
2022-09-07T21:41:38.317Z,1.40
2022-09-07T21:44:25.693Z,1.30
2022-09-07T21:47:12.073Z,1.10
2022-09-07T21:49:58.435Z,1.63
2022-09-07T21:52:44.291Z,1.40
2022-09-07T21:55:30.277Z,1.10
2022-09-07T21:58:17.438Z,1.50
2022-09-07T22:01:30.881Z,1.35
2022-09-07T22:04:16.746Z,1.30
2022-09-07T22:07:02.656Z,1.85
2022-09-07T22:09:49.303Z,1.20
2022-09-07T22:12:35.258Z,1.20
2022-09-07T22:15:21.181Z,1.52
2022-09-07T22:18:10.686Z,1.17
2022-09-07T22:21:09.169Z,1.40
2022-09-07T22:23:57.981Z,1.38
2022-09-07T22:26:44.327Z,1.50
2022-09-07T22:29:30.349Z,1.40
2022-09-07T22:32:16.298Z,1.13
2022-09-07T22:35:02.393Z,1.10
2022-09-07T22:37:48.421Z,1.30
2022-09-07T22:40:34.385Z,1.30
2022-09-07T22:43:20.147Z,1.38
2022-09-07T22:46:06.690Z,1.73
2022-09-07T22:48:55.336Z,1.20
2022-09-07T22:51:42.206Z,1.17
2022-09-07T22:54:28.069Z,1.20
2022-09-07T22:57:13.952Z,1.38
2022-09-07T22:59:59.763Z,1.23
2022-09-07T23:02:45.520Z,1.00
2022-09-07T23:05:36.967Z,1.08
2022-09-07T23:08:24.242Z,1.45
2022-09-07T23:11:11.479Z,1.10
2022-09-07T23:14:00.017Z,1.10
2022-09-07T23:16:46.891Z,1.05
2022-09-07T23:19:33.056Z,1.35
2022-09-07T23:22:21.719Z,1.23
2022-09-07T23:25:08.445Z,1.20
2022-09-07T23:27:54.562Z,1.45
2022-09-07T23:30:40.691Z,1.08
2022-09-07T23:33:27.371Z,1.20
2022-09-07T23:36:14.371Z,1.48
2022-09-07T23:39:01.191Z,1.00
2022-09-07T23:41:47.017Z,1.30
2022-09-07T23:44:33.159Z,1.40
2022-09-07T23:47:19.391Z,1.50
2022-09-07T23:50:06.289Z,1.33
2022-09-07T23:52:52.118Z,1.45
2022-09-07T23:55:38.495Z,2.00
2022-09-07T23:58:24.754Z,2.05
